Time;durP1;ratioP1;P1;durP2;ratioP2;P2;SDS_P1;SDS_P2;PMS_P1;PMS_P2;Temp;Humidity;BMP_temperature;BMP_pressure;BME280_temperature;BME280_humidity;BME280_pressure;Samples;Min_cycle;Max_cycle;Signal;HPM_P1;HPM_P2
2023/10/26 00:00:29;;;;;;;0.40;0.30;;;;;;;;;;5007827;28;20202;-84
2023/10/26 00:02:55;;;;;;;0.40;0.33;;;;;;;;;;5011473;28;20441;-86
2023/10/26 00:05:20;;;;;;;0.40;0.30;;;12.50;99.90;;;;;;5011480;28;20437;-83
2023/10/26 00:07:46;;;;;;;8.23;1.60;;;12.50;99.90;;;;;;5022592;28;20437;-84
2023/10/26 00:10:12;;;;;;;2.50;0.50;;;;;;;;;;5012136;28;20719;-83
2023/10/26 00:12:38;;;;;;;0.50;0.50;;;;;;;;;;5010774;28;20210;-85
2023/10/26 00:15:04;;;;;;;0.50;0.40;;;12.50;99.90;;;;;;5006648;28;20445;-84
2023/10/26 00:17:29;;;;;;;2.15;0.70;;;12.50;99.90;;;;;;5007317;28;20438;-84
2023/10/26 00:19:55;;;;;;;0.70;0.40;;;12.40;99.90;;;;;;5015309;28;20829;-82
2023/10/26 00:22:21;;;;;;;0.50;0.30;;;12.40;99.90;;;;;;5004608;28;20692;-83
2023/10/26 00:24:47;;;;;;;0.60;0.40;;;12.40;99.90;;;;;;5007659;28;20186;-85
2023/10/26 00:27:16;;;;;;;0.90;0.33;;;12.40;99.90;;;;;;5019864;28;20199;-83
2023/10/26 00:29:42;;;;;;;0.40;0.40;;;12.30;99.90;;;;;;5004177;28;20195;-83
2023/10/26 00:32:08;;;;;;;0.60;0.40;;;12.30;99.90;;;;;;5023045;28;20228;-85
2023/10/26 00:34:34;;;;;;;0.50;0.30;;;12.30;99.90;;;;;;5012546;28;20233;-83
2023/10/26 00:37:00;;;;;;;0.73;0.40;;;12.20;99.90;;;;;;5008084;28;20453;-85
2023/10/26 00:39:25;;;;;;;0.40;0.30;;;12.20;99.90;;;;;;5004472;28;20218;-83
2023/10/26 00:41:52;;;;;;;0.40;0.40;;;12.20;99.90;;;;;;5009857;28;20210;-83
2023/10/26 00:44:18;;;;;;;0.50;0.30;;;12.20;99.90;;;;;;5011577;28;20202;-85
2023/10/26 00:46:44;;;;;;;1.00;0.57;;;;;;;;;;5005851;28;20523;-81
2023/10/26 00:49:12;;;;;;;0.40;0.30;;;12.20;99.90;;;;;;5012424;28;20527;-86
2023/10/26 00:51:39;;;;;;;1.63;0.32;;;12.20;99.90;;;;;;5033767;28;20604;-85
2023/10/26 00:54:05;;;;;;;0.53;0.40;;;12.20;99.90;;;;;;5024998;28;20198;-83
2023/10/26 00:56:31;;;;;;;0.50;0.40;;;;;;;;;;5025557;28;20507;-83
2023/10/26 00:58:58;;;;;;;0.50;0.38;;;12.10;99.90;;;;;;5010552;28;20463;-81
2023/10/26 01:01:24;;;;;;;0.63;0.63;;;12.10;99.90;;;;;;5023267;28;20221;-83
2023/10/26 01:03:51;;;;;;;0.88;0.45;;;12.10;99.90;;;;;;5007047;28;20237;-81
2023/10/26 01:06:17;;;;;;;0.52;0.52;;;12.10;99.90;;;;;;5006760;28;20186;-82
2023/10/26 01:08:43;;;;;;;0.50;0.33;;;11.90;99.90;;;;;;5010271;28;20210;-83
2023/10/26 01:11:09;;;;;;;0.63;0.50;;;;;;;;;;5012332;28;20215;-84
2023/10/26 01:13:35;;;;;;;0.60;0.50;;;;;;;;;;5009610;28;20217;-84
2023/10/26 01:16:02;;;;;;;1.03;0.40;;;;;;;;;;5020166;28;20194;-84
2023/10/26 01:18:28;;;;;;;2.35;0.40;;;;;;;;;;5009417;28;20469;-83
2023/10/26 01:20:54;;;;;;;0.40;0.40;;;11.90;99.90;;;;;;5021918;28;20242;-81
2023/10/26 01:23:19;;;;;;;0.57;0.43;;;11.90;99.90;;;;;;5009182;28;20449;-83
2023/10/26 01:25:51;;;;;;;0.40;0.30;;;11.90;99.90;;;;;;5007629;28;20187;-84
2023/10/26 01:28:17;;;;;;;0.60;0.40;;;11.50;99.90;;;;;;5009113;28;20795;-86
2023/10/26 01:30:43;;;;;;;0.50;0.40;;;11.80;99.90;;;;;;5016487;28;20218;-85
2023/10/26 01:33:08;;;;;;;0.60;0.40;;;11.80;99.90;;;;;;5013348;28;20581;-83
2023/10/26 01:35:44;;;;;;;0.40;0.30;;;14.20;99.90;;;;;;5010862;28;20196;-80
2023/10/26 01:38:10;;;;;;;0.50;0.38;;;11.80;99.90;;;;;;5018932;28;20261;-86
2023/10/26 01:40:36;;;;;;;0.70;0.45;;;11.90;99.90;;;;;;5005785;28;20399;-81
2023/10/26 01:43:02;;;;;;;1.00;0.50;;;;;;;;;;5005475;28;20645;-83
2023/10/26 01:45:27;;;;;;;0.73;0.57;;;11.90;99.90;;;;;;5015073;28;20200;-84
2023/10/26 01:47:54;;;;;;;2.67;0.30;;;;;;;;;;5024511;28;20579;-82
2023/10/26 01:50:20;;;;;;;2.45;0.40;;;;;;;;;;5018680;28;20191;-80
2023/10/26 01:52:47;;;;;;;0.88;0.63;;;12.00;99.90;;;;;;5007483;28;20221;-83
2023/10/26 01:55:12;;;;;;;0.50;0.40;;;;;;;;;;5006246;28;20205;-83
2023/10/26 01:57:38;;;;;;;0.60;0.37;;;12.00;99.90;;;;;;5012557;28;20198;-83
2023/10/26 02:00:04;;;;;;;0.90;0.60;;;12.10;99.90;;;;;;5018834;28;21340;-84
2023/10/26 02:02:30;;;;;;;0.75;0.68;;;12.00;99.90;;;;;;5009069;28;20206;-83
2023/10/26 02:04:55;;;;;;;1.17;0.60;;;12.20;99.90;;;;;;5008226;28;20205;-83
2023/10/26 02:07:21;;;;;;;0.50;0.40;;;11.90;99.90;;;;;;5004936;28;20191;-84
2023/10/26 02:09:47;;;;;;;0.70;0.40;;;11.90;99.90;;;;;;5008002;28;20202;-83
2023/10/26 02:12:12;;;;;;;0.90;0.73;;;11.90;99.90;;;;;;5021307;28;20760;-85
2023/10/26 02:14:38;;;;;;;0.87;0.53;;;12.00;99.90;;;;;;5007353;28;20194;-83
2023/10/26 02:17:04;;;;;;;0.63;0.50;;;12.00;99.90;;;;;;5010113;28;20190;-83
2023/10/26 02:19:30;;;;;;;0.70;0.43;;;;;;;;;;5022214;28;20214;-83
2023/10/26 02:21:56;;;;;;;0.40;0.40;;;;;;;;;;5020044;28;20465;-82
2023/10/26 02:24:22;;;;;;;0.40;0.33;;;12.20;99.90;;;;;;5023152;28;20432;-83
2023/10/26 02:26:47;;;;;;;4.57;0.60;;;12.20;99.90;;;;;;5008140;28;20453;-82
2023/10/26 02:29:13;;;;;;;3.70;0.83;;;14.80;99.90;;;;;;5007691;28;20192;-82
2023/10/26 02:31:38;;;;;;;0.67;0.40;;;12.20;99.90;;;;;;5000148;28;20233;-82
2023/10/26 02:34:04;;;;;;;2.20;0.70;;;12.20;99.90;;;;;;5012779;28;20216;-82
2023/10/26 02:36:30;;;;;;;1.30;0.43;;;12.20;99.90;;;;;;5008323;28;20183;-85
2023/10/26 02:38:56;;;;;;;0.40;0.30;;;15.10;99.90;;;;;;5011610;28;20193;-82
2023/10/26 02:41:22;;;;;;;0.50;0.40;;;;;;;;;;5007129;28;20218;-81
2023/10/26 02:43:47;;;;;;;0.87;0.50;;;12.20;99.90;;;;;;5023386;28;20183;-83
2023/10/26 02:46:13;;;;;;;0.50;0.30;;;12.20;99.90;;;;;;5020386;28;20437;-84
2023/10/26 02:48:38;;;;;;;0.60;0.50;;;12.10;99.90;;;;;;5013246;28;20187;-84
2023/10/26 02:51:04;;;;;;;1.03;0.67;;;12.10;99.90;;;;;;5012128;28;20552;-83
2023/10/26 02:53:30;;;;;;;1.05;0.40;;;11.90;99.90;;;;;;5016050;28;20336;-82
2023/10/26 02:55:56;;;;;;;5.40;0.40;;;12.00;99.90;;;;;;5007562;28;20267;-84
2023/10/26 02:58:21;;;;;;;0.90;0.60;;;12.00;99.90;;;;;;5006796;28;20301;-83
2023/10/26 03:00:47;;;;;;;0.90;0.40;;;12.10;99.90;;;;;;5005274;28;20229;-84
2023/10/26 03:03:12;;;;;;;0.90;0.50;;;12.00;99.90;;;;;;5008271;28;20220;-83
2023/10/26 03:05:38;;;;;;;0.70;0.50;;;;;;;;;;5011196;28;20194;-83
2023/10/26 03:08:05;;;;;;;0.60;0.30;;;;;;;;;;5019862;28;20179;-83
2023/10/26 03:10:30;;;;;;;2.25;0.40;;;12.10;99.90;;;;;;5013488;28;20523;-84
2023/10/26 03:12:56;;;;;;;0.60;0.43;;;12.10;99.90;;;;;;5015736;28;20617;-80
2023/10/26 03:15:21;;;;;;;0.90;0.40;;;12.10;99.90;;;;;;5017570;28;20301;-84
2023/10/26 03:17:47;;;;;;;3.37;2.27;;;12.10;99.90;;;;;;5011616;28;20213;-84
2023/10/26 03:20:12;;;;;;;0.90;0.30;;;12.10;99.90;;;;;;5008524;28;20209;-82
2023/10/26 03:22:38;;;;;;;0.60;0.30;;;12.10;99.90;;;;;;5001404;28;20209;-84
2023/10/26 03:25:05;;;;;;;1.47;0.60;;;14.30;99.90;;;;;;5016381;28;20430;-84
2023/10/26 03:27:30;;;;;;;0.60;0.40;;;12.00;99.90;;;;;;5013899;28;20198;-85
2023/10/26 03:29:56;;;;;;;1.73;0.70;;;12.00;99.90;;;;;;5009549;28;20202;-82
2023/10/26 03:32:22;;;;;;;0.40;0.30;;;12.10;99.90;;;;;;5006088;28;20212;-83
2023/10/26 03:34:52;;;;;;;0.40;0.40;;;;;;;;;;5005656;28;20285;-82
2023/10/26 03:37:18;;;;;;;1.85;0.40;;;;;;;;;;5020105;28;20186;-80
2023/10/26 03:39:43;;;;;;;0.70;0.37;;;12.00;99.90;;;;;;5012870;28;20297;-81
2023/10/26 03:42:09;;;;;;;0.40;0.40;;;;;;;;;;5009503;28;20999;-82
2023/10/26 03:44:35;;;;;;;0.80;0.47;;;11.90;99.90;;;;;;5004846;28;20186;-82
2023/10/26 03:47:00;;;;;;;0.50;0.33;;;11.80;99.90;;;;;;5021872;28;20449;-82
2023/10/26 03:49:26;;;;;;;1.27;0.67;;;11.80;99.90;;;;;;5013099;28;20182;-83
2023/10/26 03:51:51;;;;;;;0.50;0.40;;;11.70;99.90;;;;;;5009869;28;20378;-84
2023/10/26 03:54:17;;;;;;;0.50;0.40;;;11.80;99.90;;;;;;5012094;28;20668;-81
2023/10/26 03:56:42;;;;;;;0.50;0.40;;;11.80;99.90;;;;;;5008581;28;20209;-85
2023/10/26 03:59:08;;;;;;;0.60;0.47;;;11.80;99.90;;;;;;5008066;28;20201;-83
2023/10/26 04:01:37;;;;;;;0.40;0.30;;;11.80;99.90;;;;;;5004530;28;20213;-84
2023/10/26 04:04:02;;;;;;;0.40;0.30;;;11.80;99.90;;;;;;5010420;28;20806;-82
2023/10/26 04:06:30;;;;;;;0.77;0.40;;;11.90;99.90;;;;;;5008115;28;20321;-84
2023/10/26 04:08:56;;;;;;;0.77;0.65;;;11.90;99.90;;;;;;5004764;28;20190;-85
2023/10/26 04:11:22;;;;;;;0.50;0.43;;;11.90;99.90;;;;;;5025503;28;20214;-82
2023/10/26 04:13:48;;;;;;;0.47;0.32;;;;;;;;;;5025290;28;20190;-82
2023/10/26 04:16:14;;;;;;;0.40;0.30;;;11.80;99.90;;;;;;5009660;28;20183;-82
2023/10/26 04:18:39;;;;;;;0.50;0.30;;;11.80;99.90;;;;;;5005429;28;20452;-84
2023/10/26 04:21:05;;;;;;;0.60;0.60;;;11.70;99.90;;;;;;5009646;28;20203;-82
2023/10/26 04:23:31;;;;;;;0.50;0.50;;;;;;;;;;5015326;28;20206;-82
2023/10/26 04:25:57;;;;;;;1.35;0.50;;;11.50;99.90;;;;;;5008238;28;20194;-82
2023/10/26 04:28:23;;;;;;;0.40;0.30;;;11.50;99.90;;;;;;5023332;28;20216;-85
2023/10/26 04:30:49;;;;;;;0.93;0.50;;;11.50;99.90;;;;;;5006945;28;20178;-83
2023/10/26 04:33:15;;;;;;;0.40;0.30;;;11.40;99.90;;;;;;5011951;28;20652;-83
2023/10/26 04:35:45;;;;;;;1.25;0.40;;;11.40;99.90;;;;;;5006770;28;20194;-85
2023/10/26 04:38:11;;;;;;;0.40;0.40;;;;;;;;;;5010768;28;20201;-82
2023/10/26 04:40:41;;;;;;;1.47;0.80;;;11.20;99.90;;;;;;5024027;28;20214;-83
2023/10/26 04:43:07;;;;;;;0.60;0.50;;;11.20;99.90;;;;;;5018030;28;20449;-84
2023/10/26 04:45:33;;;;;;;0.88;0.60;;;11.20;99.90;;;;;;5005679;28;20194;-87
2023/10/26 04:47:58;;;;;;;0.47;0.40;;;11.10;99.90;;;;;;5012754;28;20186;-83
2023/10/26 04:50:25;;;;;;;0.40;0.30;;;11.10;99.90;;;;;;5008911;28;20437;-81
2023/10/26 04:52:50;;;;;;;0.85;0.50;;;11.10;99.90;;;;;;5022017;28;20311;-82
2023/10/26 04:55:16;;;;;;;0.40;0.33;;;11.00;99.90;;;;;;4994441;28;20292;-82
2023/10/26 04:57:41;;;;;;;2.70;0.40;;;11.00;99.90;;;;;;5009178;28;20205;-84
2023/10/26 05:00:09;;;;;;;0.50;0.50;;;11.00;99.90;;;;;;4988723;28;20806;-81
2023/10/26 05:02:39;;;;;;;0.80;0.80;;;10.90;99.90;;;;;;4992028;28;20206;-84
2023/10/26 05:05:05;;;;;;;3.45;0.88;;;10.80;99.90;;;;;;4994785;28;20208;-83
2023/10/26 05:07:30;;;;;;;1.00;0.97;;;10.80;99.90;;;;;;5000987;28;20942;-85
2023/10/26 05:09:57;;;;;;;1.97;1.03;;;10.60;99.90;;;;;;5008530;28;20445;-81
2023/10/26 05:12:22;;;;;;;0.50;0.50;;;10.60;99.90;;;;;;5005941;28;20728;-82
2023/10/26 05:14:48;;;;;;;0.83;0.70;;;10.50;99.90;;;;;;5007953;28;20293;-79
2023/10/26 05:17:14;;;;;;;0.50;0.33;;;10.40;99.90;;;;;;5012036;28;20309;-80
2023/10/26 05:19:39;;;;;;;1.17;1.00;;;10.40;99.90;;;;;;5004321;28;20301;-84
2023/10/26 05:22:05;;;;;;;0.77;0.60;;;10.40;99.90;;;;;;5010014;28;20214;-84
2023/10/26 05:24:31;;;;;;;0.67;0.67;;;10.30;99.90;;;;;;5005406;28;20270;-82
2023/10/26 05:26:56;;;;;;;0.50;0.50;;;10.30;99.90;;;;;;5015001;28;20213;-85
2023/10/26 05:29:22;;;;;;;0.60;0.60;;;10.20;99.90;;;;;;5012966;28;20166;-78
2023/10/26 05:31:47;;;;;;;0.90;0.70;;;10.20;99.90;;;;;;5013882;28;20766;-81
2023/10/26 05:34:13;;;;;;;2.30;2.10;;;10.20;99.90;;;;;;5005816;28;20202;-81
2023/10/26 05:36:39;;;;;;;0.90;0.80;;;10.20;99.90;;;;;;5019617;28;20273;-84
2023/10/26 05:39:05;;;;;;;3.33;0.60;;;10.20;99.90;;;;;;4999600;28;20293;-84
2023/10/26 05:41:30;;;;;;;1.80;1.07;;;10.20;99.90;;;;;;5004344;28;20924;-79
2023/10/26 05:43:56;;;;;;;0.40;0.30;;;10.20;99.90;;;;;;5006121;28;20196;-81
2023/10/26 05:46:21;;;;;;;0.80;0.40;;;10.20;99.90;;;;;;5015114;28;20256;-83
2023/10/26 05:48:47;;;;;;;1.00;0.50;;;10.20;99.90;;;;;;4999962;28;20197;-82
2023/10/26 05:51:12;;;;;;;1.30;0.40;;;10.20;99.90;;;;;;5007138;28;20237;-84
2023/10/26 05:53:38;;;;;;;0.60;0.50;;;10.20;99.90;;;;;;5004416;28;20193;-82
2023/10/26 05:56:04;;;;;;;0.40;0.30;;;10.20;99.90;;;;;;5016618;28;20194;-82
2023/10/26 05:58:29;;;;;;;0.93;0.50;;;10.20;99.90;;;;;;5011394;28;20277;-80
2023/10/26 06:00:55;;;;;;;0.70;0.50;;;10.20;99.90;;;;;;5012067;28;20494;-83
2023/10/26 06:03:21;;;;;;;0.95;0.63;;;;;;;;;;5000248;28;20183;-85
2023/10/26 06:05:47;;;;;;;0.95;0.50;;;;;;;;;;5007040;28;20182;-85
2023/10/26 06:08:13;;;;;;;0.80;0.47;;;10.10;99.90;;;;;;5003613;28;20281;-87
2023/10/26 06:10:39;;;;;;;0.60;0.50;;;10.10;99.90;;;;;;5026791;28;20229;-82
2023/10/26 06:13:07;;;;;;;0.97;0.40;;;10.10;99.90;;;;;;5010829;28;21121;-80
2023/10/26 06:15:33;;;;;;;1.15;0.80;;;10.10;99.90;;;;;;5007370;28;20240;-86
2023/10/26 06:17:59;;;;;;;2.95;0.50;;;10.10;99.90;;;;;;5027117;28;20241;-86
2023/10/26 06:20:27;;;;;;;0.50;0.40;;;;;;;;;;5022531;28;20217;-77
2023/10/26 06:22:54;;;;;;;1.77;0.40;;;10.10;99.90;;;;;;5042973;28;20276;-82
2023/10/26 06:25:20;;;;;;;1.58;0.68;;;10.10;99.90;;;;;;5017425;28;20232;-83
2023/10/26 06:27:47;;;;;;;0.60;0.60;;;10.10;99.90;;;;;;5015515;28;20182;-83
2023/10/26 06:30:14;;;;;;;1.88;0.40;;;10.10;99.90;;;;;;5015026;28;20186;-81
2023/10/26 06:32:40;;;;;;;0.40;0.40;;;10.20;99.90;;;;;;5014336;28;20260;-84
2023/10/26 06:35:06;;;;;;;0.40;0.30;;;10.30;99.90;;;;;;5009634;28;20190;-83
2023/10/26 06:37:32;;;;;;;2.33;0.40;;;10.40;99.90;;;;;;5013852;28;20453;-82
2023/10/26 06:39:58;;;;;;;1.43;0.80;;;;;;;;;;5019277;28;20460;-83
2023/10/26 06:42:24;;;;;;;0.40;0.30;;;;;;;;;;5033399;28;20461;-85
2023/10/26 06:44:50;;;;;;;0.80;0.50;;;;;;;;;;5015177;28;20620;-82
2023/10/26 06:47:16;;;;;;;1.50;0.60;;;10.80;99.90;;;;;;5020150;28;21237;-83
2023/10/26 06:49:42;;;;;;;1.43;0.60;;;10.90;99.90;;;;;;5016056;28;20437;-82
2023/10/26 06:52:08;;;;;;;0.50;0.35;;;11.10;99.90;;;;;;5013826;28;20464;-83
2023/10/26 06:54:34;;;;;;;0.67;0.43;;;11.00;99.90;;;;;;5016360;28;20439;-83
2023/10/26 06:56:59;;;;;;;0.50;0.40;;;11.00;99.90;;;;;;5031293;28;20491;-84
2023/10/26 06:59:25;;;;;;;1.93;0.50;;;11.00;99.90;;;;;;5009819;28;20178;-83
2023/10/26 07:01:51;;;;;;;2.00;0.60;;;11.20;99.90;;;;;;5030831;28;20423;-81
2023/10/26 07:04:16;;;;;;;0.53;0.40;;;11.20;99.90;;;;;;5018165;28;20187;-82
2023/10/26 07:06:42;;;;;;;3.67;0.40;;;;;;;;;;5013753;28;21170;-82
2023/10/26 07:09:08;;;;;;;1.90;0.35;;;11.30;99.90;;;;;;5015520;28;20205;-82
2023/10/26 07:11:33;;;;;;;1.23;0.90;;;11.40;99.90;;;;;;5005346;28;20205;-82
2023/10/26 07:14:00;;;;;;;0.80;0.43;;;11.30;99.90;;;;;;5013902;28;20190;-82
2023/10/26 07:16:25;;;;;;;1.88;0.60;;;11.30;99.90;;;;;;5030503;28;20220;-82
2023/10/26 07:18:51;;;;;;;1.27;0.47;;;11.40;99.90;;;;;;5015029;28;20238;-82
2023/10/26 07:21:17;;;;;;;0.40;0.30;;;11.40;99.90;;;;;;5029715;28;20214;-82
2023/10/26 07:23:42;;;;;;;0.60;0.40;;;11.40;99.90;;;;;;5017727;28;20441;-82
2023/10/26 07:26:08;;;;;;;1.60;0.50;;;11.50;99.90;;;;;;5025278;28;20195;-81
2023/10/26 07:28:34;;;;;;;0.63;0.40;;;12.20;99.90;;;;;;5014559;28;20201;-82
2023/10/26 07:30:59;;;;;;;16.17;7.70;;;11.90;99.90;;;;;;5015136;28;20667;-83
2023/10/26 07:33:25;;;;;;;4.97;3.53;;;12.10;99.90;;;;;;5007411;28;20186;-84
2023/10/26 07:35:56;;;;;;;3.50;1.53;;;12.30;99.90;;;;;;5011710;28;20274;-82
2023/10/26 07:38:24;;;;;;;0.50;0.50;;;12.50;99.90;;;;;;5013808;28;20179;-83
2023/10/26 07:40:52;;;;;;;10.00;2.20;;;12.90;99.90;;;;;;5013061;28;20469;-83
2023/10/26 07:43:17;;;;;;;1.50;1.03;;;12.90;99.90;;;;;;5003858;28;20541;-82
2023/10/26 07:45:43;;;;;;;8.50;3.17;;;12.90;99.90;;;;;;5020492;28;20464;-83
2023/10/26 07:48:09;;;;;;;3.40;2.63;;;12.90;99.90;;;;;;5014563;28;20622;-82
2023/10/26 07:50:34;;;;;;;3.57;2.40;;;12.80;99.90;;;;;;5027277;28;20800;-83
2023/10/26 07:53:00;;;;;;;1.63;1.53;;;12.90;99.90;;;;;;5025654;28;20229;-83
2023/10/26 07:55:25;;;;;;;1.00;0.87;;;12.90;99.90;;;;;;5012005;28;20182;-84
2023/10/26 07:57:51;;;;;;;1.33;0.70;;;12.90;99.90;;;;;;5005098;28;20186;-83
2023/10/26 08:00:17;;;;;;;2.97;0.50;;;15.00;99.90;;;;;;5011170;28;20210;-82
2023/10/26 08:02:42;;;;;;;1.87;0.90;;;13.10;99.90;;;;;;4999897;28;20202;-86
2023/10/26 08:05:09;;;;;;;1.43;0.80;;;13.20;99.90;;;;;;5015134;28;20445;-83
2023/10/26 08:07:36;;;;;;;2.10;1.27;;;13.40;99.90;;;;;;5027577;28;20194;-84
2023/10/26 08:10:02;;;;;;;2.00;1.20;;;13.50;99.90;;;;;;5001747;28;20443;-84
2023/10/26 08:12:28;;;;;;;7.17;2.13;;;13.60;99.90;;;;;;5008298;28;20457;-82
2023/10/26 08:14:57;;;;;;;2.87;1.70;;;13.70;99.90;;;;;;5011936;28;20202;-83
2023/10/26 08:17:23;;;;;;;3.50;1.50;;;13.80;99.90;;;;;;5012956;28;20201;-83
2023/10/26 08:19:55;;;;;;;2.03;0.93;;;14.00;99.90;;;;;;5029009;28;20465;-83
2023/10/26 08:22:21;;;;;;;6.83;2.73;;;14.20;99.90;;;;;;5026999;28;20488;-82
2023/10/26 08:24:48;;;;;;;1.00;0.73;;;14.30;99.90;;;;;;5008779;28;20437;-83
2023/10/26 08:27:14;;;;;;;1.77;1.10;;;16.30;99.90;;;;;;5021208;28;20468;-83
2023/10/26 08:29:39;;;;;;;0.90;0.63;;;14.50;99.90;;;;;;5014950;28;20425;-82
2023/10/26 08:32:05;;;;;;;2.30;0.90;;;14.50;99.90;;;;;;5012734;28;20202;-83
2023/10/26 08:34:31;;;;;;;2.60;1.27;;;14.60;99.90;;;;;;5028019;28;20210;-82
2023/10/26 08:36:59;;;;;;;2.97;1.33;;;14.40;99.90;;;;;;5026167;28;20190;-85
2023/10/26 08:39:24;;;;;;;1.17;0.60;;;14.50;99.90;;;;;;5003252;28;20437;-84
2023/10/26 08:41:50;;;;;;;1.63;0.70;;;14.80;99.90;;;;;;5012720;28;20506;-84
2023/10/26 08:44:17;;;;;;;1.07;0.50;;;15.20;99.90;;;;;;5011607;28;20189;-83
2023/10/26 08:46:44;;;;;;;0.53;0.50;;;15.40;99.90;;;;;;5010198;28;20205;-82
2023/10/26 08:49:11;;;;;;;3.30;0.70;;;15.40;99.90;;;;;;5008146;28;20483;-83
2023/10/26 08:51:36;;;;;;;0.70;0.40;;;15.40;99.90;;;;;;5009982;28;20489;-82
2023/10/26 08:54:02;;;;;;;0.50;0.30;;;15.40;99.90;;;;;;5025505;28;20437;-83
2023/10/26 08:56:28;;;;;;;0.70;0.50;;;15.60;99.90;;;;;;5011160;28;20178;-83
2023/10/26 08:58:57;;;;;;;1.07;0.57;;;15.40;99.90;;;;;;5012284;28;20186;-82
2023/10/26 09:01:23;;;;;;;1.00;0.53;;;15.40;99.90;;;;;;5030648;28;20213;-82
2023/10/26 09:03:49;;;;;;;1.93;0.53;;;18.60;99.90;;;;;;5013257;28;20495;-81
2023/10/26 09:06:15;;;;;;;2.47;0.80;;;15.10;99.90;;;;;;5013375;28;20437;-81
2023/10/26 09:08:41;;;;;;;2.30;0.83;;;15.00;99.90;;;;;;5005487;28;20501;-82
2023/10/26 09:11:21;;;;;;;2.30;0.90;;;15.20;99.90;;;;;;5027609;28;20301;-82
2023/10/26 09:13:47;;;;;;;1.23;0.80;;;15.10;99.90;;;;;;5006006;28;20443;-84
2023/10/26 09:16:13;;;;;;;0.77;0.60;;;14.70;99.90;;;;;;5012883;28;20437;-83
2023/10/26 09:18:38;;;;;;;0.60;0.60;;;14.60;99.90;;;;;;5011970;28;20448;-84
2023/10/26 09:21:06;;;;;;;1.10;0.60;;;14.10;99.90;;;;;;5028563;28;20269;-81
2023/10/26 09:23:33;;;;;;;0.60;0.50;;;13.70;99.90;;;;;;5015284;28;20182;-82
2023/10/26 09:26:02;;;;;;;1.50;1.13;;;13.50;99.90;;;;;;5022117;28;20464;-85
2023/10/26 09:28:28;;;;;;;0.90;0.60;;;13.50;99.90;;;;;;5015660;28;20437;-86
2023/10/26 09:31:01;;;;;;;0.60;0.43;;;13.60;99.90;;;;;;5024223;28;20433;-81
2023/10/26 09:33:27;;;;;;;0.93;0.70;;;13.60;99.90;;;;;;5013462;28;20183;-86
2023/10/26 09:35:52;;;;;;;1.00;0.90;;;13.60;99.90;;;;;;5028149;28;20457;-84
2023/10/26 09:38:34;;;;;;;0.80;0.80;;;13.50;99.90;;;;;;5012275;28;20186;-84
2023/10/26 09:41:00;;;;;;;1.33;0.60;;;13.30;99.90;;;;;;5004723;28;20237;-86
2023/10/26 09:43:25;;;;;;;1.43;1.33;;;13.30;99.90;;;;;;5025691;28;20453;-84
2023/10/26 09:45:51;;;;;;;1.10;0.90;;;13.00;99.90;;;;;;5011940;28;20441;-86
2023/10/26 09:48:18;;;;;;;9.83;0.93;;;13.00;99.90;;;;;;5013540;28;20190;-86
2023/10/26 09:50:45;;;;;;;1.33;1.03;;;12.60;99.90;;;;;;5015235;28;20205;-82
2023/10/26 09:53:11;;;;;;;0.97;0.87;;;12.60;99.90;;;;;;5021092;28;20456;-81
2023/10/26 09:55:37;;;;;;;2.03;1.20;;;12.40;99.90;;;;;;5016835;28;20448;-82
2023/10/26 09:58:05;;;;;;;1.00;0.70;;;12.20;99.90;;;;;;5032136;28;20517;-83
2023/10/26 10:00:33;;;;;;;4.40;0.87;;;11.90;99.90;;;;;;5032566;28;20205;-83
2023/10/26 10:03:10;;;;;;;0.60;0.57;;;11.90;99.90;;;;;;5018539;28;20472;-84
2023/10/26 10:05:39;;;;;;;2.27;0.80;;;11.90;99.90;;;;;;5017850;28;20488;-85
2023/10/26 10:08:06;;;;;;;1.90;1.65;;;;;;;;;;5033644;28;20877;-84
2023/10/26 10:10:33;;;;;;;26.40;9.40;;;;;;;;;;5032545;28;20186;-83
2023/10/26 10:12:58;;;;;;;8.63;3.70;;;12.30;99.90;;;;;;5030643;28;20464;-82
2023/10/26 10:15:42;;;;;;;6.33;3.60;;;15.00;99.90;;;;;;5015605;28;20492;-83
2023/10/26 10:18:09;;;;;;;3.10;1.60;;;12.60;99.90;;;;;;5008541;28;20250;-82
2023/10/26 10:20:36;;;;;;;1.73;1.13;;;12.70;99.90;;;;;;5020016;28;20468;-86
2023/10/26 10:23:03;;;;;;;3.83;2.00;;;12.60;99.90;;;;;;5016799;28;20548;-84
2023/10/26 10:25:50;;;;;;;3.20;1.40;;;12.60;99.90;;;;;;5006832;28;20518;-85
2023/10/26 10:28:18;;;;;;;2.20;1.27;;;12.60;99.90;;;;;;5031633;28;20445;-85
2023/10/26 10:31:00;;;;;;;1.87;1.70;;;13.00;99.90;;;;;;5017424;28;20437;-86
2023/10/26 10:33:27;;;;;;;2.80;1.60;;;13.20;99.90;;;;;;5017420;28;20496;-86
2023/10/26 10:36:04;;;;;;;1.80;1.27;;;13.20;99.90;;;;;;5030353;28;20450;-84
2023/10/26 10:38:31;;;;;;;1.90;1.03;;;13.20;99.90;;;;;;5016206;28;20440;-84
2023/10/26 10:41:02;;;;;;;3.50;1.10;;;13.10;99.90;;;;;;5017852;28;20472;-82
2023/10/26 10:43:31;;;;;;;1.80;1.03;;;13.10;99.90;;;;;;5010642;28;20441;-84
2023/10/26 10:45:56;;;;;;;3.00;1.30;;;13.20;99.90;;;;;;5020852;28;20441;-87
2023/10/26 10:48:22;;;;;;;4.90;1.60;;;13.40;99.90;;;;;;5014081;28;20471;-86
2023/10/26 10:50:51;;;;;;;2.50;1.00;;;13.10;99.90;;;;;;5026882;28;20206;-84
2023/10/26 10:53:17;;;;;;;3.50;1.60;;;13.10;99.90;;;;;;5013154;28;20222;-86
2023/10/26 10:55:43;;;;;;;2.57;1.27;;;13.20;99.90;;;;;;5014029;28;20437;-84
2023/10/26 10:58:09;;;;;;;1.93;1.73;;;13.20;99.90;;;;;;5010597;28;21462;-85
2023/10/26 11:00:45;;;;;;;1.47;0.90;;;13.20;99.90;;;;;;5013305;28;20487;-85
2023/10/26 11:03:18;;;;;;;2.93;1.77;;;13.20;99.90;;;;;;5013235;28;20189;-85
2023/10/26 11:05:44;;;;;;;3.60;1.03;;;13.20;99.90;;;;;;5030070;28;20810;-84
2023/10/26 11:08:10;;;;;;;5.00;1.50;;;;;;;;;;5016697;28;20441;-83
2023/10/26 11:10:35;;;;;;;2.80;1.60;;;13.10;99.90;;;;;;5021200;28;20182;-87
2023/10/26 11:13:02;;;;;;;4.50;1.80;;;13.10;99.90;;;;;;5024166;28;20469;-83
2023/10/26 11:15:45;;;;;;;1.50;1.20;;;13.50;99.90;;;;;;5008751;28;20716;-84
2023/10/26 11:18:11;;;;;;;6.40;2.47;;;12.80;99.90;;;;;;5020773;28;20528;-84
2023/10/26 11:20:37;;;;;;;1.67;1.27;;;13.00;99.90;;;;;;5006728;28;20552;-84
2023/10/26 11:23:04;;;;;;;15.23;2.47;;;13.00;99.90;;;;;;5003874;28;20252;-84
2023/10/26 11:25:29;;;;;;;2.83;1.63;;;13.10;99.90;;;;;;5009150;28;20445;-84
2023/10/26 11:27:55;;;;;;;2.20;1.33;;;;;;;;;;5006130;28;20529;-83
2023/10/26 11:30:21;;;;;;;1.57;1.30;;;;;;;;;;5015423;28;20229;-84
2023/10/26 11:32:47;;;;;;;3.03;2.00;;;13.50;99.90;;;;;;5014666;28;20527;-85
2023/10/26 11:35:14;;;;;;;3.20;2.57;;;13.60;99.90;;;;;;5013561;28;20441;-83
2023/10/26 11:37:42;;;;;;;2.57;2.27;;;13.70;99.90;;;;;;5029462;28;20186;-83
2023/10/26 11:40:09;;;;;;;2.20;1.97;;;13.70;99.90;;;;;;5019764;28;20560;-85
2023/10/26 11:43:05;;;;;;;1.93;1.63;;;13.70;99.90;;;;;;5014221;28;20488;-84
2023/10/26 11:45:50;;;;;;;2.33;1.70;;;13.60;99.90;;;;;;5007539;28;20443;-83
2023/10/26 11:48:30;;;;;;;2.90;1.70;;;13.70;99.90;;;;;;5013882;28;20494;-84
2023/10/26 11:50:56;;;;;;;2.60;1.30;;;14.00;99.90;;;;;;5027729;28;20445;-85
2023/10/26 11:53:22;;;;;;;2.30;1.30;;;14.00;99.90;;;;;;5008461;28;20556;-84
2023/10/26 11:55:49;;;;;;;4.30;2.53;;;13.60;99.90;;;;;;5030977;28;20473;-82
2023/10/26 11:58:15;;;;;;;4.53;1.30;;;13.50;99.90;;;;;;5023415;28;20481;-83
2023/10/26 12:00:42;;;;;;;4.63;2.40;;;13.40;99.90;;;;;;5028886;28;20471;-83
2023/10/26 12:03:07;;;;;;;8.10;6.07;;;13.40;99.90;;;;;;5013279;28;20194;-84
2023/10/26 12:05:33;;;;;;;1.43;0.70;;;13.60;99.90;;;;;;5028315;28;20596;-84
2023/10/26 12:07:59;;;;;;;1.10;1.00;;;;;;;;;;5017992;28;20278;-84
2023/10/26 12:10:25;;;;;;;0.60;0.50;;;;;;;;;;5013281;28;20216;-84
2023/10/26 12:12:51;;;;;;;0.83;0.70;;;14.50;99.90;;;;;;5000976;28;20485;-83
2023/10/26 12:15:18;;;;;;;2.20;1.20;;;14.80;99.90;;;;;;5019291;28;20532;-84
2023/10/26 12:17:44;;;;;;;1.03;0.93;;;15.00;99.90;;;;;;5032761;28;20472;-84
2023/10/26 12:20:11;;;;;;;1.60;0.60;;;15.20;99.90;;;;;;5012080;28;20469;-86
2023/10/26 12:22:37;;;;;;;1.10;1.00;;;15.20;99.90;;;;;;5018070;28;20461;-85
2023/10/26 12:25:04;;;;;;;0.80;0.67;;;15.10;99.90;;;;;;5027050;28;20437;-86
2023/10/26 12:27:30;;;;;;;0.70;0.50;;;15.10;99.90;;;;;;5012842;28;20426;-84
2023/10/26 12:29:56;;;;;;;3.70;0.90;;;15.30;99.90;;;;;;5003375;28;20436;-84
2023/10/26 12:32:23;;;;;;;0.60;0.40;;;15.40;99.90;;;;;;5026541;28;20465;-83
2023/10/26 12:34:49;;;;;;;1.53;0.73;;;15.70;99.90;;;;;;5012950;28;20179;-83
2023/10/26 12:37:15;;;;;;;1.03;0.70;;;15.70;99.90;;;;;;5016932;28;20492;-84
2023/10/26 12:39:40;;;;;;;1.40;1.17;;;15.60;99.90;;;;;;5010079;28;20461;-83
2023/10/26 12:42:06;;;;;;;12.40;3.40;;;15.80;99.90;;;;;;5014884;28;20206;-86
2023/10/26 12:44:32;;;;;;;1.50;1.33;;;;;;;;;;5014667;28;20190;-84
2023/10/26 12:46:57;;;;;;;3.17;2.20;;;16.10;99.90;;;;;;5030121;28;20224;-84
2023/10/26 12:49:23;;;;;;;1.60;0.77;;;;;;;;;;5012803;28;20453;-85
2023/10/26 12:51:50;;;;;;;3.00;1.83;;;16.20;99.90;;;;;;5005325;28;20229;-84
2023/10/26 12:54:17;;;;;;;1.73;1.17;;;;;;;;;;5018660;28;20448;-83
2023/10/26 12:56:42;;;;;;;3.10;2.30;;;15.50;99.90;;;;;;5031704;28;20480;-84